createdAt,value
2023-04-11T00:01:26.433Z,1.00
2023-04-11T00:03:53.286Z,1.00
2023-04-11T00:06:20.349Z,1.00
2023-04-11T00:08:47.924Z,1.00
2023-04-11T00:11:14.769Z,1.00
2023-04-11T00:13:42.120Z,1.00
2023-04-11T00:16:10.232Z,1.00
2023-04-11T00:18:39.407Z,1.00
2023-04-11T00:21:07.008Z,1.00
2023-04-11T00:23:33.866Z,1.00
2023-04-11T00:26:00.472Z,1.00
2023-04-11T00:28:27.437Z,1.00
2023-04-11T00:30:54.040Z,1.00
2023-04-11T00:33:21.003Z,1.00
2023-04-11T00:35:47.635Z,1.00
2023-04-11T00:38:14.243Z,1.00
2023-04-11T00:40:40.945Z,1.00
2023-04-11T00:43:07.499Z,1.00
2023-04-11T00:45:34.401Z,1.00
2023-04-11T00:48:01.127Z,1.00
2023-04-11T00:50:28.228Z,1.00
2023-04-11T00:52:55.563Z,1.00
2023-04-11T00:57:49.716Z,1.00
2023-04-11T01:00:16.354Z,1.00
2023-04-11T01:02:43.732Z,1.00
2023-04-11T01:05:11.209Z,1.00
2023-04-11T01:07:38.301Z,1.00
2023-04-11T01:10:05.889Z,1.00
2023-04-11T01:12:32.760Z,1.00
2023-04-11T01:14:59.346Z,1.00
2023-04-11T01:17:26.047Z,1.00
2023-04-11T01:19:52.781Z,1.20
2023-04-11T01:22:20.852Z,1.00
2023-04-11T01:24:47.618Z,1.00
2023-04-11T01:27:14.249Z,1.00
2023-04-11T01:29:41.225Z,1.00
2023-04-11T01:32:08.052Z,1.00
2023-04-11T01:34:35.876Z,1.00
2023-04-11T01:37:02.593Z,3.10
2023-04-11T01:39:29.532Z,5.20
2023-04-11T01:41:57.621Z,8.10
2023-04-11T01:44:25.249Z,11.40
2023-04-11T01:46:51.867Z,10.40
2023-04-11T01:49:18.834Z,9.60
2023-04-11T01:51:45.934Z,11.60
2023-04-11T01:54:12.627Z,12.10
2023-04-11T01:56:39.659Z,14.30
2023-04-11T01:59:06.239Z,17.00
2023-04-11T02:01:34.151Z,18.50
2023-04-11T02:04:00.962Z,18.20
2023-04-11T02:06:27.751Z,19.90
2023-04-11T02:08:54.506Z,20.20
2023-04-11T02:11:21.347Z,19.70
2023-04-11T02:13:47.944Z,22.80
2023-04-11T02:16:18.175Z,29.00
2023-04-11T02:18:45.703Z,33.30
2023-04-11T02:21:12.573Z,35.60
2023-04-11T02:23:39.222Z,40.30
2023-04-11T02:26:05.829Z,40.80
2023-04-11T02:28:32.399Z,39.40
2023-04-11T02:30:59.218Z,42.60
2023-04-11T02:33:26.255Z,41.90
2023-04-11T02:35:53.054Z,39.70
2023-04-11T02:38:19.768Z,35.00
2023-04-11T02:40:46.831Z,36.60
2023-04-11T02:43:13.391Z,36.60
2023-04-11T02:45:40.082Z,39.50
2023-04-11T02:48:06.812Z,41.00
2023-04-11T02:50:33.458Z,41.30
2023-04-11T02:53:00.050Z,43.50
2023-04-11T02:55:27.224Z,46.20
2023-04-11T02:57:53.797Z,49.00
2023-04-11T03:00:21.377Z,50.00
2023-04-11T03:02:49.350Z,56.20
2023-04-11T03:05:15.950Z,52.50
2023-04-11T03:07:43.464Z,52.40
2023-04-11T03:10:10.182Z,53.40
2023-04-11T03:12:36.850Z,55.60
2023-04-11T03:15:04.598Z,57.00
2023-04-11T03:17:31.235Z,58.80
2023-04-11T03:19:57.781Z,58.70
2023-04-11T03:22:24.534Z,60.20
2023-04-11T03:24:51.282Z,61.10
2023-04-11T03:27:18.516Z,62.60
2023-04-11T03:29:45.112Z,68.40
2023-04-11T03:32:11.647Z,68.50
2023-04-11T03:34:38.654Z,72.70
2023-04-11T03:37:05.391Z,73.30
2023-04-11T03:39:31.962Z,70.80
2023-04-11T03:41:58.610Z,71.20
2023-04-11T03:44:25.340Z,72.00
2023-04-11T03:46:52.082Z,71.40
2023-04-11T03:49:18.651Z,70.60
2023-04-11T03:51:46.239Z,71.10
2023-04-11T03:54:12.767Z,70.70
2023-04-11T03:56:39.433Z,68.50
2023-04-11T03:59:05.988Z,70.00
2023-04-11T04:01:32.600Z,70.40
2023-04-11T04:04:00.644Z,72.40
2023-04-11T04:06:28.489Z,74.00
2023-04-11T04:08:55.317Z,74.90
2023-04-11T04:11:21.923Z,75.40
2023-04-11T04:13:48.908Z,77.20
2023-04-11T04:16:17.726Z,77.60
2023-04-11T04:18:44.474Z,78.70
2023-04-11T04:21:11.096Z,79.30
2023-04-11T04:23:39.271Z,79.80
2023-04-11T04:26:06.713Z,80.30
2023-04-11T04:28:33.632Z,80.90
2023-04-11T04:31:02.245Z,80.70
2023-04-11T04:33:28.874Z,80.50
2023-04-11T04:35:59.865Z,82.10
2023-04-11T04:38:28.184Z,82.30
2023-04-11T04:40:54.953Z,82.70
2023-04-11T04:43:22.685Z,83.50
2023-04-11T04:45:49.540Z,86.10
2023-04-11T04:48:17.377Z,86.00
2023-04-11T04:50:45.641Z,86.40
2023-04-11T04:53:12.689Z,88.10
2023-04-11T04:55:39.654Z,88.40
2023-04-11T04:58:06.176Z,88.80
2023-04-11T05:00:33.565Z,90.00
2023-04-11T05:03:00.304Z,90.20
2023-04-11T05:05:27.030Z,90.20
2023-04-11T05:07:53.593Z,90.50
2023-04-11T05:10:20.337Z,90.70
2023-04-11T05:15:15.101Z,91.20
2023-04-11T05:17:42.646Z,91.10
2023-04-11T05:20:09.638Z,91.40
2023-04-11T05:22:37.847Z,90.90
2023-04-11T05:25:04.870Z,91.20
2023-04-11T05:27:32.269Z,91.20
2023-04-11T05:29:59.489Z,91.50
2023-04-11T05:32:26.128Z,90.10
2023-04-11T05:34:54.729Z,84.00
2023-04-11T05:39:50.274Z,68.60
2023-04-11T05:42:17.688Z,73.40
2023-04-11T05:44:44.726Z,73.00
2023-04-11T05:47:11.816Z,69.10
2023-04-11T05:49:38.496Z,70.10
2023-04-11T05:52:05.076Z,71.90
2023-04-11T05:54:35.419Z,71.60
2023-04-11T05:57:02.702Z,71.50
2023-04-11T05:59:32.569Z,73.40
2023-04-11T06:01:59.454Z,69.70
2023-04-11T06:04:26.271Z,67.50
2023-04-11T06:06:53.364Z,67.80
2023-04-11T06:09:19.989Z,65.80
2023-04-11T06:16:41.254Z,61.00
2023-04-11T06:19:07.849Z,57.00
2023-04-11T06:21:34.378Z,55.80
2023-04-11T06:24:10.998Z,56.70
2023-04-11T06:26:37.538Z,56.40
2023-04-11T06:29:04.996Z,55.10
2023-04-11T06:31:31.796Z,57.00
2023-04-11T06:33:58.929Z,56.60
2023-04-11T06:36:27.020Z,55.90
2023-04-11T06:38:53.604Z,54.10
2023-04-11T06:41:20.444Z,54.10
2023-04-11T06:43:46.987Z,52.90
2023-04-11T06:46:13.606Z,54.10
2023-04-11T06:48:40.231Z,52.80
2023-04-11T06:51:08.947Z,53.60
2023-04-11T06:53:35.590Z,49.90
2023-04-11T06:56:02.188Z,50.70
2023-04-11T06:58:28.762Z,52.40
2023-04-11T07:00:55.320Z,50.40
2023-04-11T07:03:25.144Z,48.40
2023-04-11T07:05:52.105Z,50.10
2023-04-11T07:08:18.617Z,50.00
2023-04-11T07:10:45.305Z,50.40
2023-04-11T07:13:11.829Z,46.70
2023-04-11T07:15:38.453Z,46.70
2023-04-11T07:18:05.142Z,44.50
2023-04-11T07:20:33.007Z,46.30
2023-04-11T07:22:59.891Z,44.10
2023-04-11T07:25:27.180Z,43.70
2023-04-11T07:27:53.803Z,46.90
2023-04-11T07:30:20.356Z,49.50
2023-04-11T07:32:47.261Z,44.20
2023-04-11T07:35:14.311Z,42.40
2023-04-11T07:37:42.390Z,44.00
2023-04-11T07:40:14.190Z,42.70
2023-04-11T07:42:41.333Z,42.60
2023-04-11T07:45:08.150Z,40.70
2023-04-11T07:47:35.644Z,41.20
2023-04-11T07:50:02.711Z,39.70
2023-04-11T07:52:29.353Z,38.70
2023-04-11T07:54:56.144Z,36.40
2023-04-11T07:57:22.765Z,34.30
2023-04-11T07:59:49.253Z,32.70
2023-04-11T08:02:16.097Z,29.20
2023-04-11T08:04:42.875Z,29.40
2023-04-11T08:07:09.475Z,29.20
2023-04-11T08:09:36.073Z,29.20
2023-04-11T08:12:03.421Z,27.40
2023-04-11T08:14:29.982Z,28.10
2023-04-11T08:16:56.608Z,25.70
2023-04-11T08:19:23.167Z,25.60
2023-04-11T08:21:49.789Z,25.50
2023-04-11T08:24:16.322Z,27.30
2023-04-11T08:26:42.903Z,26.40
2023-04-11T08:29:11.424Z,26.50
2023-04-11T08:31:44.504Z,22.10
2023-04-11T08:34:11.633Z,18.10
2023-04-11T08:36:38.212Z,15.80
2023-04-11T08:39:04.830Z,14.80
2023-04-11T08:41:32.129Z,15.40
2023-04-11T08:43:58.979Z,16.40
2023-04-11T08:46:25.714Z,14.30
2023-04-11T08:48:52.350Z,12.30
2023-04-11T08:51:22.315Z,11.60
2023-04-11T08:53:49.931Z,9.10
2023-04-11T08:56:19.441Z,6.00
2023-04-11T08:58:46.320Z,1.00
2023-04-11T09:01:29.467Z,1.00
2023-04-11T09:03:56.275Z,1.00
2023-04-11T09:06:23.127Z,1.00
2023-04-11T09:08:49.785Z,1.00
2023-04-11T09:11:17.070Z,1.00
2023-04-11T09:13:43.635Z,1.00
2023-04-11T09:16:14.236Z,1.00
2023-04-11T09:18:41.857Z,1.00
2023-04-11T09:21:10.204Z,1.00
2023-04-11T09:23:37.092Z,1.00
2023-04-11T09:26:07.484Z,1.00
2023-04-11T09:28:41.627Z,1.00
2023-04-11T09:31:08.940Z,1.00
2023-04-11T09:33:35.953Z,1.00
2023-04-11T09:36:17.111Z,1.00
2023-04-11T09:38:44.197Z,1.00
2023-04-11T09:41:11.271Z,1.00
2023-04-11T09:43:51.419Z,1.00
2023-04-11T09:46:20.573Z,1.00
2023-04-11T09:48:48.190Z,1.00
2023-04-11T09:51:24.295Z,1.00
2023-04-11T09:54:01.428Z,1.00
2023-04-11T09:56:28.878Z,1.00
2023-04-11T09:58:57.135Z,1.00
2023-04-11T10:01:24.414Z,1.00
2023-04-11T10:03:51.409Z,1.00
2023-04-11T10:06:59.580Z,1.00
2023-04-11T10:09:27.662Z,1.00
2023-04-11T10:11:54.267Z,1.00
2023-04-11T10:14:38.964Z,1.00
2023-04-11T10:17:22.932Z,1.00
2023-04-11T10:19:54.505Z,1.00
2023-04-11T10:22:39.944Z,1.00
2023-04-11T10:25:16.896Z,1.00
2023-04-11T10:27:53.794Z,1.00
2023-04-11T10:30:38.896Z,1.00
2023-04-11T10:33:12.613Z,1.00
2023-04-11T10:35:58.260Z,1.00
2023-04-11T10:38:36.868Z,1.00
2023-04-11T10:41:16.997Z,1.00
2023-04-11T10:43:43.638Z,1.00
2023-04-11T10:46:36.571Z,1.00
2023-04-11T10:49:04.184Z,1.00
2023-04-11T10:54:00.180Z,1.00
2023-04-11T10:56:42.475Z,1.00
2023-04-11T10:59:27.631Z,1.00
2023-04-11T11:01:55.538Z,1.00
2023-04-11T11:04:30.870Z,1.00
2023-04-11T11:07:01.767Z,1.00
2023-04-11T11:09:28.789Z,1.00
2023-04-11T11:12:11.783Z,1.00
2023-04-11T11:14:40.004Z,1.00
2023-04-11T11:17:06.927Z,1.00
2023-04-11T11:19:33.620Z,1.00
2023-04-11T11:22:03.686Z,1.00
2023-04-11T11:24:30.681Z,1.00
2023-04-11T11:26:57.508Z,1.00
2023-04-11T11:29:34.890Z,1.00
2023-04-11T11:32:05.044Z,1.00
2023-04-11T11:34:32.741Z,1.00
2023-04-11T11:37:01.559Z,1.00
2023-04-11T11:39:28.999Z,1.00
2023-04-11T11:41:56.216Z,1.00
2023-04-11T11:44:29.698Z,1.00
2023-04-11T11:47:03.650Z,1.00
2023-04-11T11:50:02.749Z,1.00
2023-04-11T11:52:42.425Z,1.00
2023-04-11T11:55:28.969Z,1.00
2023-04-11T11:57:58.961Z,1.00
2023-04-11T12:00:26.267Z,1.00
2023-04-11T12:02:53.584Z,1.00
2023-04-11T12:05:20.614Z,1.00
2023-04-11T12:07:47.132Z,1.00
2023-04-11T12:10:14.366Z,1.00
2023-04-11T12:12:42.705Z,1.00
2023-04-11T12:15:13.107Z,1.00
2023-04-11T12:17:40.247Z,1.00
2023-04-11T12:20:10.671Z,1.00
2023-04-11T12:22:37.562Z,1.00
2023-04-11T12:25:14.237Z,1.00
2023-04-11T12:27:41.963Z,1.00
2023-04-11T12:30:09.428Z,1.00
2023-04-11T12:32:36.445Z,1.00
2023-04-11T12:35:04.129Z,1.00
2023-04-11T12:37:31.339Z,1.00
2023-04-11T12:39:57.945Z,1.00
2023-04-11T12:42:27.122Z,1.00
2023-04-11T12:44:54.267Z,1.00
2023-04-11T12:47:20.872Z,1.00
2023-04-11T12:49:47.439Z,1.00
2023-04-11T12:52:14.005Z,1.00
2023-04-11T12:54:41.059Z,1.00
2023-04-11T12:57:07.893Z,1.00
2023-04-11T12:59:34.413Z,1.00
2023-04-11T13:02:01.445Z,1.00
2023-04-11T13:04:28.413Z,1.00
2023-04-11T13:06:55.142Z,1.00
2023-04-11T13:09:21.937Z,1.00
2023-04-11T13:11:48.489Z,1.00
2023-04-11T13:14:15.124Z,1.00
2023-04-11T13:16:43.282Z,1.00
2023-04-11T13:19:09.851Z,1.00
2023-04-11T13:21:37.249Z,1.00
2023-04-11T13:24:03.798Z,1.00
2023-04-11T13:26:30.305Z,1.00
2023-04-11T13:28:57.812Z,1.00
2023-04-11T13:31:27.671Z,1.00
2023-04-11T13:33:57.377Z,1.00
2023-04-11T13:36:24.430Z,1.00
2023-04-11T13:38:51.086Z,1.00
2023-04-11T13:41:17.616Z,1.00
2023-04-11T13:43:44.150Z,1.00
2023-04-11T13:46:11.252Z,1.00
2023-04-11T13:48:38.349Z,1.00
2023-04-11T13:51:04.937Z,1.00
2023-04-11T13:53:31.461Z,1.00
2023-04-11T13:55:58.037Z,1.00
2023-04-11T13:58:24.676Z,1.00
2023-04-11T14:00:51.489Z,1.00
2023-04-11T14:03:18.102Z,1.00
2023-04-11T14:05:44.690Z,1.00
2023-04-11T14:08:11.309Z,1.00
2023-04-11T14:10:37.802Z,1.00
2023-04-11T14:13:06.580Z,1.00
2023-04-11T14:15:33.233Z,1.00
2023-04-11T14:17:59.812Z,1.00
2023-04-11T14:20:26.614Z,1.00
2023-04-11T14:22:53.260Z,1.00
2023-04-11T14:25:21.020Z,1.00
2023-04-11T14:27:47.499Z,1.00
2023-04-11T14:30:14.196Z,1.00
2023-04-11T14:32:41.245Z,1.00
2023-04-11T14:35:09.323Z,1.00
2023-04-11T14:37:36.762Z,1.00
2023-04-11T14:40:05.229Z,1.00
2023-04-11T14:42:31.827Z,1.00
2023-04-11T14:44:58.361Z,1.00
2023-04-11T14:47:24.909Z,1.00
2023-04-11T14:49:51.611Z,1.00
2023-04-11T14:52:18.404Z,1.00
2023-04-11T14:54:44.988Z,1.00
2023-04-11T14:57:11.555Z,1.00
2023-04-11T14:59:38.039Z,1.00
2023-04-11T15:02:05.266Z,1.00
2023-04-11T15:04:31.919Z,1.00
2023-04-11T15:06:59.091Z,1.00
2023-04-11T15:09:25.637Z,1.00
2023-04-11T15:11:52.438Z,1.00
2023-04-11T15:14:19.279Z,1.00
2023-04-11T15:16:45.933Z,1.00
2023-04-11T15:19:12.447Z,1.00
2023-04-11T15:21:39.137Z,1.00
2023-04-11T15:24:07.558Z,1.00
2023-04-11T15:26:34.303Z,1.00
2023-04-11T15:29:01.358Z,1.00
2023-04-11T15:31:28.012Z,1.00
2023-04-11T15:33:56.218Z,1.00
2023-04-11T15:36:23.270Z,1.00
2023-04-11T15:38:49.856Z,1.00
2023-04-11T15:41:17.258Z,1.00
2023-04-11T15:43:44.093Z,1.00
2023-04-11T15:46:10.610Z,1.00
2023-04-11T15:48:37.141Z,1.00
2023-04-11T15:51:10.837Z,1.00
2023-04-11T15:53:37.477Z,1.00
2023-04-11T15:56:05.218Z,1.00
2023-04-11T15:58:33.358Z,1.00
2023-04-11T16:01:01.539Z,1.00
2023-04-11T16:03:34.411Z,1.00
2023-04-11T16:06:01.519Z,1.00
2023-04-11T16:08:28.069Z,1.00
2023-04-11T16:10:54.665Z,1.00
2023-04-11T16:13:21.241Z,1.00
2023-04-11T16:15:47.784Z,1.00
2023-04-11T16:18:14.332Z,1.00
2023-04-11T16:20:41.047Z,1.00
2023-04-11T16:23:07.580Z,1.00
2023-04-11T16:25:34.086Z,1.00
2023-04-11T16:28:00.617Z,1.00
2023-04-11T16:30:27.952Z,1.00
2023-04-11T16:32:54.723Z,1.00
2023-04-11T16:35:21.346Z,1.00
2023-04-11T16:37:47.989Z,1.00
2023-04-11T16:40:15.631Z,1.00
2023-04-11T16:42:42.367Z,1.00
2023-04-11T16:45:11.879Z,1.00
2023-04-11T16:47:38.440Z,1.00
2023-04-11T16:50:08.317Z,1.00
2023-04-11T16:52:34.910Z,1.00
2023-04-11T16:55:02.917Z,1.00
2023-04-11T16:57:29.556Z,1.00
2023-04-11T16:59:56.107Z,1.00
2023-04-11T17:02:23.429Z,1.00
2023-04-11T17:04:49.986Z,1.00
2023-04-11T17:07:17.301Z,1.00
2023-04-11T17:09:46.355Z,1.00
2023-04-11T17:12:13.077Z,1.00
2023-04-11T17:17:06.985Z,1.00
2023-04-11T17:19:33.861Z,1.00
2023-04-11T17:22:00.617Z,1.00
2023-04-11T17:24:27.467Z,1.00
2023-04-11T17:26:54.142Z,1.00
2023-04-11T17:29:20.697Z,1.00
2023-04-11T17:31:47.272Z,1.00
2023-04-11T17:34:13.834Z,1.00
2023-04-11T17:36:42.890Z,1.00
2023-04-11T17:39:11.309Z,1.00
2023-04-11T17:41:37.903Z,1.00
2023-04-11T17:44:04.532Z,1.00
2023-04-11T17:46:31.147Z,1.00
2023-04-11T17:48:57.798Z,1.00
2023-04-11T17:53:51.432Z,1.00
2023-04-11T17:56:19.052Z,1.00
2023-04-11T17:58:47.890Z,1.00
2023-04-11T18:01:15.530Z,1.00
2023-04-11T18:03:42.538Z,1.00
2023-04-11T18:11:09.713Z,1.00
2023-04-11T18:13:36.252Z,1.00
2023-04-11T18:21:01.826Z,1.00
2023-04-11T18:30:49.413Z,1.00
2023-04-11T18:35:45.060Z,1.00
2023-04-11T18:43:05.921Z,1.00
2023-04-11T18:45:32.911Z,1.00
2023-04-11T18:47:59.540Z,1.00
2023-04-11T18:50:27.745Z,1.00
2023-04-11T18:52:56.641Z,1.00
2023-04-11T18:55:27.249Z,1.00
2023-04-11T19:22:34.268Z,1.00
2023-04-11T19:34:51.386Z,1.00
2023-04-11T19:37:19.436Z,1.00
2023-04-11T19:39:46.194Z,1.00
2023-04-11T19:42:12.872Z,1.00
2023-04-11T20:11:39.507Z,3.60
2023-04-11T20:21:28.421Z,6.00
2023-04-11T20:23:55.218Z,7.00
2023-04-11T20:26:22.422Z,6.90
2023-04-11T20:28:50.328Z,7.10
2023-04-11T20:31:17.390Z,6.50
2023-04-11T20:43:32.986Z,9.60
2023-04-11T21:27:50.620Z,19.80
2023-04-11T21:42:32.773Z,18.10
2023-04-11T21:44:59.425Z,18.10
2023-04-11T21:49:53.168Z,19.30
2023-04-11T21:52:19.732Z,20.10
2023-04-11T21:59:40.454Z,19.70
2023-04-11T22:02:07.271Z,19.80
2023-04-11T22:07:09.653Z,20.80
2023-04-11T22:09:38.127Z,21.50
2023-04-11T22:12:04.717Z,22.40
2023-04-11T22:14:31.258Z,23.30
2023-04-11T22:16:58.320Z,25.00
2023-04-11T22:19:24.890Z,23.90
2023-04-11T22:21:55.663Z,24.50
2023-04-11T22:24:23.970Z,24.60
2023-04-11T22:26:55.738Z,24.50
2023-04-11T22:29:26.132Z,23.50
2023-04-11T22:31:53.054Z,23.10
2023-04-11T22:34:19.678Z,23.40
2023-04-11T22:36:46.660Z,24.50
2023-04-11T22:39:13.206Z,26.70
2023-04-11T22:41:39.819Z,26.60
2023-04-11T22:56:26.004Z,27.20
2023-04-11T22:58:52.581Z,27.70
2023-04-11T23:01:19.534Z,28.00
2023-04-11T23:03:46.426Z,28.30
2023-04-11T23:25:50.294Z,28.10
2023-04-11T23:28:17.355Z,29.70
2023-04-11T23:30:44.267Z,29.90
2023-04-11T23:43:00.155Z,30.50
2023-04-11T23:45:26.769Z,32.00
2023-04-11T23:47:53.441Z,33.20
2023-04-11T23:50:19.991Z,33.70
2023-04-11T23:52:47.016Z,34.10
2023-04-11T23:55:13.647Z,36.60
2023-04-11T23:57:40.569Z,36.10
